Flight Track Log - Related Links

Times and Time Zones

All times are in EDT time to prevent confusion due to time zone crossing. See the THY1629 flight status page for this flight to view local times or setup timezone preferences in your user account.


Time Position Orientation Groundspeed Altitude Reporting Facility
EDT Latitude Longitude Course Direction KTS MPH feet Rate Location/Type
Fri 01:14:00 AM 41.3224 28.2111 307° West  Level Estimated
Fri 01:15:00 AM 41.3911 28.0883 307° West  Level Estimated
Fri 01:16:00 AM 41.4597 27.9653 307° West  Level Estimated
Fri 01:17:00 AM 41.5282 27.8420 307° West  Level Estimated
Fri 01:18:00 AM 41.5965 27.7184 307° West  Level Estimated
Fri 01:19:00 AM 41.6647 27.5946 306° West  Level Estimated
Fri 01:20:00 AM 41.7327 27.4705 306° West  Level Estimated
Fri 01:21:00 AM 41.8007 27.3462 306° West  Level Estimated
Fri 01:22:00 AM 41.8685 27.2216 306° West  Level Estimated
Fri 01:23:00 AM 41.9361 27.0967 306° West  Level Estimated
Fri 01:24:00 AM 42.0036 26.9716 306° West  Level Estimated
Fri 01:25:00 AM 42.0710 26.8462 306° West  Level Estimated
Fri 01:26:00 AM 42.1383 26.7205 306° West  Level Estimated
Fri 01:27:00 AM 42.2054 26.5946 306° West  Level Estimated
Fri 01:28:00 AM 42.2724 26.4684 306° West  Level Estimated
Fri 01:29:00 AM 42.3392 26.3419 306° West  Level Estimated
Fri 01:30:00 AM 42.4059 26.2152 306° West  Level Estimated
Fri 01:31:00 AM 42.4724 26.0882 305° West  Level Estimated
Fri 01:32:00 AM 42.5388 25.9609 305° West  Level Estimated
Fri 01:33:00 AM 42.6051 25.8333 305° West  Level Estimated
Fri 01:34:00 AM 42.6712 25.7055 305° West  Level Estimated
Fri 01:35:00 AM 42.7372 25.5774 305° West  Level Estimated
Fri 01:36:00 AM 42.8031 25.4491 305° West  Level Estimated
Fri 01:37:00 AM 42.8688 25.3204 305° West  Level Estimated
Fri 01:38:00 AM 42.9343 25.1915 305° West  Level Estimated
Fri 01:39:00 AM 42.9997 25.0623 305° West  Level Estimated
Fri 01:40:00 AM 43.0650 24.9328 305° West  Level Estimated
Fri 01:41:00 AM 43.1301 24.8031 305° West  Level Estimated
Fri 01:42:00 AM 43.1951 24.6731 304° West  Level Estimated
Fri 01:43:00 AM 43.2599 24.5428 304° West  Level Estimated
Fri 01:44:00 AM 43.3246 24.4122 304° West  Level Estimated
Fri 01:45:00 AM 43.3891 24.2814 304° West  Level Estimated
Fri 01:46:00 AM 43.4535 24.1503 304° West  Level Estimated
Fri 01:47:00 AM 43.5177 24.0189 304° West  Level Estimated
Fri 01:48:00 AM 43.5818 23.8872 304° West  Level Estimated
Fri 01:49:00 AM 43.6457 23.7552 304° West  Level Estimated
Fri 01:50:00 AM 43.7095 23.6230 304° West  Level Estimated
Fri 01:51:00 AM 43.7731 23.4904 304° West  Level Estimated
Fri 01:52:00 AM 43.8366 23.3576 304° West  Level Estimated
Fri 01:53:00 AM 43.8999 23.2246 303° West  Level Estimated
Fri 01:54:00 AM 43.9631 23.0912 303° West  Level Estimated
Fri 01:55:00 AM 44.0261 22.9575 303° West  Level Estimated
Fri 01:56:00 AM 44.0889 22.8236 303° West  Level Estimated
Fri 01:57:00 AM 44.1516 22.6894 303° West  Level Estimated
Fri 01:58:00 AM 44.2141 22.5548 303° West  Level Estimated
Fri 01:59:00 AM 44.2765 22.4200 303° West  Level Estimated
Fri 02:00:00 AM 44.3387 22.2850 303° West  Level Estimated
Fri 02:01:00 AM 44.4008 22.1496 303° West  Level Estimated
Fri 02:02:00 AM 44.4627 22.0139 303° West  Level Estimated
Fri 02:03:00 AM 44.5244 21.8780 303° West  Level Estimated
Fri 02:04:00 AM 44.5860 21.7418 302° West  Level Estimated
Fri 02:05:00 AM 44.6474 21.6052 302° West  Level Estimated
Fri 02:06:00 AM 44.7086 21.4684 302° West  Level Estimated
Fri 02:07:00 AM 44.7697 21.3313 302° West  Level Estimated
Fri 02:08:00 AM 44.8307 21.1940 302° West  Level Estimated
Fri 02:09:00 AM 44.8914 21.0563 302° West  Level Estimated
Fri 02:10:00 AM 44.9520 20.9183 302° West  Level Estimated
Fri 02:11:00 AM 45.0124 20.7800 302° West  Level Estimated
Fri 02:12:00 AM 45.0727 20.6415 302° West  Level Estimated
Fri 02:13:00 AM 45.1328 20.5026 302° West  Level Estimated
Fri 02:14:00 AM 45.1927 20.3635 301° West  Level Estimated
Fri 02:15:00 AM 45.2524 20.2241 301° West  Level Estimated
Fri 02:16:00 AM 45.3120 20.0844 301° West  Level Estimated
Fri 02:17:00 AM 45.3714 19.9443 301° West  Level Estimated
Fri 02:18:00 AM 45.4307 19.8040 301° West  Level Estimated
Fri 02:19:00 AM 45.4897 19.6634 301° West  Level Estimated
Fri 02:20:00 AM 45.5486 19.5225 301° West  Level Estimated
Fri 02:21:00 AM 45.6073 19.3813 301° West  Level Estimated
Fri 02:22:00 AM 45.6659 19.2398 301° West  Level Estimated
Fri 02:23:00 AM 45.7243 19.0980 301° West  Level Estimated
Fri 02:24:00 AM 45.7825 18.9560 300° West  Level Estimated
Fri 02:25:00 AM 45.8405 18.8136 300° West  Level Estimated
Fri 02:26:00 AM 45.8983 18.6709 300° West  Level Estimated
Fri 02:27:00 AM 45.9560 18.5279 300° West  Level Estimated
Fri 02:28:00 AM 46.0135 18.3847 300° West  Level Estimated
Fri 02:29:00 AM 46.0708 18.2411 300° West  Level Estimated
Fri 02:30:00 AM 46.1279 18.0972 300° West  Level Estimated
Fri 02:31:00 AM 46.1848 17.9531 300° West  Level Estimated
Fri 02:32:00 AM 46.2416 17.8086 300° West  Level Estimated
Fri 02:33:00 AM 46.2982 17.6638 300° West  Level Estimated
Fri 02:34:00 AM 46.3546 17.5188 299° West  Level Estimated
Fri 02:35:00 AM 46.4108 17.3734 299° West  Level Estimated
Fri 02:36:00 AM 46.4668 17.2278 299° West  Level Estimated
Fri 02:37:00 AM 46.5227 17.0818 299° West  Level Estimated
Fri 02:38:00 AM 46.5783 16.9355 299° West  Level Estimated
Fri 02:39:00 AM 46.6338 16.7890 299° West  Level Estimated
Fri 02:40:00 AM 46.6891 16.6421 299° West  Level Estimated
Fri 02:41:00 AM 46.7441 16.4950 299° West  Level Estimated
Fri 02:42:00 AM 46.7991 16.3475 299° West  Level Estimated
Fri 02:43:00 AM 46.8538 16.1997 298° West  Level Estimated
Fri 02:44:00 AM 46.9083 16.0517 298° West  Level Estimated
Fri 02:45:00 AM 46.9626 15.9033 298° West  Level Estimated
Fri 02:46:00 AM 47.0168 15.7547 298° West  Level Estimated
Fri 02:47:00 AM 47.0707 15.6057 298° West  Level Estimated
Fri 02:48:00 AM 47.1245 15.4564 298° West  Level Estimated
Fri 02:49:00 AM 47.1780 15.3069 298° West  Level Estimated
Fri 02:50:00 AM 47.2314 15.1570 298° West  Level Estimated
Fri 02:51:00 AM 47.2846 15.0068 298° West  Level Estimated
Fri 02:52:00 AM 47.3376 14.8563 297° West  Level Estimated
Fri 02:53:00 AM 47.3903 14.7056 297° West  Level Estimated
Fri 02:54:00 AM 47.4429 14.5545 297° West  Level Estimated
Fri 02:55:00 AM 47.4953 14.4031 297° West  Level Estimated
Fri 02:56:00 AM 47.5475 14.2514 297° West  Level Estimated
Fri 02:57:00 AM 47.5994 14.0995 297° West  Level Estimated
Fri 02:58:00 AM 47.6512 13.9472 297° West  Level Estimated
Fri 02:59:00 AM 47.7028 13.7946 297° West  Level Estimated
Fri 03:00:00 AM 47.7542 13.6417 297° West  Level Estimated
Fri 03:01:00 AM 47.8053 13.4885 296° West  Level Estimated
Fri 03:02:00 AM 47.8563 13.3350 296° West  Level Estimated
Fri 03:03:00 AM 47.9071 13.1812 296° West  Level Estimated
Fri 03:04:00 AM 47.9576 13.0271 296° West  Level Estimated
Fri 03:05:00 AM 48.0080 12.8727 296° West  Level Estimated
Fri 03:06:00 AM 48.0581 12.7180 296° West  Level Estimated
Fri 03:07:00 AM 48.1081 12.5631 296° West  Level Estimated
Fri 03:08:00 AM 48.1578 12.4078 296° West  Level Estimated
Fri 03:09:00 AM 48.2073 12.2522 296° West  Level Estimated
Fri 03:10:00 AM 48.2566 12.0963 295° West  Level Estimated
Fri 03:11:00 AM 48.3057 11.9401 295° West  Level Estimated
Fri 03:12:00 AM 48.3538 11.7861 295° West  Level Estimated
Fri 03:13:00 AM 48.3538 11.7861 North  Level Estimated
Fri 03:14:00 AM 48.3538 11.7861 North  Level Estimated
Fri 03:15:00 AM 48.3538 11.7861 North  Level Estimated
Fri 03:16:00 AM 48.3538 11.7861 North  Level Estimated
Fri 03:17:00 AM 48.3538 11.7861 North  Level Estimated
Fri 03:18:00 AM 48.3538 11.7861 North  Level Estimated
Fri 03:19:00 AM 48.3538 11.7861 North  Level Estimated
Fri 03:20:00 AM 48.3538 11.7861 North  Level Estimated
Fri 03:21:00 AM 48.3538 11.7861 North  Level Estimated
Fri 03:22:00 AM 48.3538 11.7861 North  Level Estimated
Fri 03:23:00 AM 48.3538 11.7861 North  Level Estimated

Login

Don't have an account? Register now (free) for customized features, flight alerts, and more!